sensor_id;sensor_type;location;lat;lon;timestamp;temperature;humidity
913;DHT22;443;51.448;7.028;2023-03-29T00:02:23;12.40;69.10
913;DHT22;443;51.448;7.028;2023-03-29T00:04:55;12.40;68.30
913;DHT22;443;51.448;7.028;2023-03-29T00:07:21;12.40;68.30
913;DHT22;443;51.448;7.028;2023-03-29T00:09:50;12.40;68.40
913;DHT22;443;51.448;7.028;2023-03-29T00:12:17;12.40;68.40
913;DHT22;443;51.448;7.028;2023-03-29T00:14:44;12.40;68.70
913;DHT22;443;51.448;7.028;2023-03-29T00:17:12;12.30;68.20
913;DHT22;443;51.448;7.028;2023-03-29T00:19:39;12.40;68.30
913;DHT22;443;51.448;7.028;2023-03-29T00:22:07;12.40;68.50
913;DHT22;443;51.448;7.028;2023-03-29T00:24:33;12.40;68.30
913;DHT22;443;51.448;7.028;2023-03-29T00:27:00;12.40;68.10
913;DHT22;443;51.448;7.028;2023-03-29T00:29:27;12.30;67.70
913;DHT22;443;51.448;7.028;2023-03-29T00:31:54;12.40;68.00
913;DHT22;443;51.448;7.028;2023-03-29T00:34:23;12.40;68.50
913;DHT22;443;51.448;7.028;2023-03-29T00:36:51;12.40;69.60
913;DHT22;443;51.448;7.028;2023-03-29T00:39:23;12.40;68.10
913;DHT22;443;51.448;7.028;2023-03-29T00:41:50;12.40;68.50
913;DHT22;443;51.448;7.028;2023-03-29T00:44:56;12.30;68.20
913;DHT22;443;51.448;7.028;2023-03-29T00:47:26;12.40;68.40
913;DHT22;443;51.448;7.028;2023-03-29T00:49:56;12.40;68.60
913;DHT22;443;51.448;7.028;2023-03-29T00:52:26;12.40;68.90
913;DHT22;443;51.448;7.028;2023-03-29T00:54:58;12.50;70.20
913;DHT22;443;51.448;7.028;2023-03-29T00:57:28;12.40;68.00
913;DHT22;443;51.448;7.028;2023-03-29T00:59:56;12.40;67.90
913;DHT22;443;51.448;7.028;2023-03-29T01:02:27;12.40;67.70
913;DHT22;443;51.448;7.028;2023-03-29T01:05:03;12.30;68.30
913;DHT22;443;51.448;7.028;2023-03-29T01:07:35;12.30;67.30
913;DHT22;443;51.448;7.028;2023-03-29T01:10:07;12.30;68.10
913;DHT22;443;51.448;7.028;2023-03-29T01:12:38;12.30;68.30
913;DHT22;443;51.448;7.028;2023-03-29T01:15:09;12.40;67.80
913;DHT22;443;51.448;7.028;2023-03-29T01:17:37;12.30;67.20
913;DHT22;443;51.448;7.028;2023-03-29T01:20:11;12.30;67.90
913;DHT22;443;51.448;7.028;2023-03-29T01:22:53;12.40;67.60
913;DHT22;443;51.448;7.028;2023-03-29T01:25:30;12.30;68.20
913;DHT22;443;51.448;7.028;2023-03-29T01:28:02;12.40;67.80
913;DHT22;443;51.448;7.028;2023-03-29T01:30:32;12.40;68.20
913;DHT22;443;51.448;7.028;2023-03-29T01:33:03;12.40;68.30
913;DHT22;443;51.448;7.028;2023-03-29T01:35:37;12.30;66.90
913;DHT22;443;51.448;7.028;2023-03-29T01:38:09;12.40;67.70
913;DHT22;443;51.448;7.028;2023-03-29T01:40:38;12.40;67.70
913;DHT22;443;51.448;7.028;2023-03-29T01:43:12;12.30;67.50
913;DHT22;443;51.448;7.028;2023-03-29T01:45:45;12.40;68.00
913;DHT22;443;51.448;7.028;2023-03-29T01:48:18;12.40;67.60
913;DHT22;443;51.448;7.028;2023-03-29T01:50:50;12.40;68.20
913;DHT22;443;51.448;7.028;2023-03-29T01:53:21;12.40;67.30
913;DHT22;443;51.448;7.028;2023-03-29T01:55:54;12.40;68.60
913;DHT22;443;51.448;7.028;2023-03-29T01:58:26;12.40;67.20
913;DHT22;443;51.448;7.028;2023-03-29T02:00:54;12.50;70.00
913;DHT22;443;51.448;7.028;2023-03-29T02:03:23;12.50;67.40
913;DHT22;443;51.448;7.028;2023-03-29T02:05:52;12.40;67.40
913;DHT22;443;51.448;7.028;2023-03-29T02:08:20;12.40;66.60
913;DHT22;443;51.448;7.028;2023-03-29T02:10:48;12.40;69.60
913;DHT22;443;51.448;7.028;2023-03-29T02:13:16;12.40;67.20
913;DHT22;443;51.448;7.028;2023-03-29T02:15:44;12.40;67.50
913;DHT22;443;51.448;7.028;2023-03-29T02:18:12;12.40;66.90
913;DHT22;443;51.448;7.028;2023-03-29T02:20:43;12.40;67.70
913;DHT22;443;51.448;7.028;2023-03-29T02:23:14;12.50;67.60
913;DHT22;443;51.448;7.028;2023-03-29T02:25:43;12.50;67.10
913;DHT22;443;51.448;7.028;2023-03-29T02:28:12;12.40;66.50
913;DHT22;443;51.448;7.028;2023-03-29T02:30:43;12.40;66.80
913;DHT22;443;51.448;7.028;2023-03-29T02:33:16;12.40;67.10
913;DHT22;443;51.448;7.028;2023-03-29T02:35:51;12.50;67.90
913;DHT22;443;51.448;7.028;2023-03-29T02:38:19;12.50;67.10
913;DHT22;443;51.448;7.028;2023-03-29T02:40:50;12.40;67.00
913;DHT22;443;51.448;7.028;2023-03-29T02:43:18;12.50;67.00
913;DHT22;443;51.448;7.028;2023-03-29T02:45:46;12.50;67.00
913;DHT22;443;51.448;7.028;2023-03-29T02:48:17;12.50;67.10
913;DHT22;443;51.448;7.028;2023-03-29T02:50:47;12.50;67.40
913;DHT22;443;51.448;7.028;2023-03-29T02:53:16;12.50;67.70
913;DHT22;443;51.448;7.028;2023-03-29T02:55:44;12.50;67.40
913;DHT22;443;51.448;7.028;2023-03-29T02:58:11;12.50;67.30
913;DHT22;443;51.448;7.028;2023-03-29T03:00:42;12.50;66.90
913;DHT22;443;51.448;7.028;2023-03-29T03:03:11;12.50;67.50
913;DHT22;443;51.448;7.028;2023-03-29T03:05:41;12.60;67.60
913;DHT22;443;51.448;7.028;2023-03-29T03:08:07;12.50;68.90
913;DHT22;443;51.448;7.028;2023-03-29T03:10:35;12.50;66.80
913;DHT22;443;51.448;7.028;2023-03-29T03:13:02;12.50;67.20
913;DHT22;443;51.448;7.028;2023-03-29T03:15:28;12.50;66.70
913;DHT22;443;51.448;7.028;2023-03-29T03:17:55;12.50;66.70
913;DHT22;443;51.448;7.028;2023-03-29T03:20:22;12.50;67.50
913;DHT22;443;51.448;7.028;2023-03-29T03:22:50;12.50;66.80
913;DHT22;443;51.448;7.028;2023-03-29T03:25:18;12.50;66.90
913;DHT22;443;51.448;7.028;2023-03-29T03:27:46;12.50;66.80
913;DHT22;443;51.448;7.028;2023-03-29T03:30:14;12.50;67.50
913;DHT22;443;51.448;7.028;2023-03-29T03:32:42;12.50;66.90
913;DHT22;443;51.448;7.028;2023-03-29T03:35:09;12.50;67.00
913;DHT22;443;51.448;7.028;2023-03-29T03:37:37;12.60;67.50
913;DHT22;443;51.448;7.028;2023-03-29T03:40:07;12.50;66.60
913;DHT22;443;51.448;7.028;2023-03-29T03:42:36;12.50;67.30
913;DHT22;443;51.448;7.028;2023-03-29T03:45:03;12.50;67.10
913;DHT22;443;51.448;7.028;2023-03-29T03:47:30;12.50;67.60
913;DHT22;443;51.448;7.028;2023-03-29T03:49:56;12.40;67.40
913;DHT22;443;51.448;7.028;2023-03-29T03:52:23;12.50;67.30
913;DHT22;443;51.448;7.028;2023-03-29T03:54:50;12.50;67.60
913;DHT22;443;51.448;7.028;2023-03-29T03:57:18;12.50;67.60
913;DHT22;443;51.448;7.028;2023-03-29T03:59:45;12.50;68.60
913;DHT22;443;51.448;7.028;2023-03-29T04:02:12;12.50;67.70
913;DHT22;443;51.448;7.028;2023-03-29T04:04:39;12.50;68.20
913;DHT22;443;51.448;7.028;2023-03-29T04:07:06;12.50;68.10
913;DHT22;443;51.448;7.028;2023-03-29T04:09:34;12.50;68.30
913;DHT22;443;51.448;7.028;2023-03-29T04:12:00;12.50;68.30
913;DHT22;443;51.448;7.028;2023-03-29T04:14:28;12.40;67.70
913;DHT22;443;51.448;7.028;2023-03-29T04:16:56;12.50;68.30
913;DHT22;443;51.448;7.028;2023-03-29T04:19:23;12.50;68.90
913;DHT22;443;51.448;7.028;2023-03-29T04:21:50;12.40;68.60
913;DHT22;443;51.448;7.028;2023-03-29T04:24:16;12.50;68.70
913;DHT22;443;51.448;7.028;2023-03-29T04:26:43;12.50;68.70
913;DHT22;443;51.448;7.028;2023-03-29T04:29:10;12.50;68.80
913;DHT22;443;51.448;7.028;2023-03-29T04:31:38;12.50;69.30
913;DHT22;443;51.448;7.028;2023-03-29T04:34:05;12.50;69.10
913;DHT22;443;51.448;7.028;2023-03-29T04:36:32;12.50;68.30
913;DHT22;443;51.448;7.028;2023-03-29T04:38:58;12.50;68.70
913;DHT22;443;51.448;7.028;2023-03-29T04:41:26;12.50;68.20
913;DHT22;443;51.448;7.028;2023-03-29T04:43:53;12.60;70.30
913;DHT22;443;51.448;7.028;2023-03-29T04:46:20;12.60;70.00
913;DHT22;443;51.448;7.028;2023-03-29T04:48:51;12.60;69.60
913;DHT22;443;51.448;7.028;2023-03-29T04:51:18;12.60;69.50
913;DHT22;443;51.448;7.028;2023-03-29T04:53:47;12.60;70.50
913;DHT22;443;51.448;7.028;2023-03-29T04:56:14;12.60;70.90
913;DHT22;443;51.448;7.028;2023-03-29T04:58:41;12.50;69.90
913;DHT22;443;51.448;7.028;2023-03-29T05:01:08;12.50;70.90
913;DHT22;443;51.448;7.028;2023-03-29T05:03:35;12.60;70.90
913;DHT22;443;51.448;7.028;2023-03-29T05:06:04;12.60;71.80
913;DHT22;443;51.448;7.028;2023-03-29T05:08:32;12.60;70.50
913;DHT22;443;51.448;7.028;2023-03-29T05:10:59;12.50;71.40
913;DHT22;443;51.448;7.028;2023-03-29T05:13:26;12.50;71.30
913;DHT22;443;51.448;7.028;2023-03-29T05:15:53;12.50;72.80
913;DHT22;443;51.448;7.028;2023-03-29T05:18:21;12.50;71.50
913;DHT22;443;51.448;7.028;2023-03-29T05:20:49;12.60;71.60
913;DHT22;443;51.448;7.028;2023-03-29T05:23:21;12.60;71.30
913;DHT22;443;51.448;7.028;2023-03-29T05:25:48;12.50;71.00
913;DHT22;443;51.448;7.028;2023-03-29T05:28:15;12.50;71.30
913;DHT22;443;51.448;7.028;2023-03-29T05:30:42;12.60;71.60
913;DHT22;443;51.448;7.028;2023-03-29T05:33:10;12.60;71.70
913;DHT22;443;51.448;7.028;2023-03-29T05:35:37;12.70;71.60
913;DHT22;443;51.448;7.028;2023-03-29T05:38:04;12.70;71.80
913;DHT22;443;51.448;7.028;2023-03-29T05:40:33;12.60;71.20
913;DHT22;443;51.448;7.028;2023-03-29T05:43:00;12.70;71.30
913;DHT22;443;51.448;7.028;2023-03-29T05:45:27;12.60;71.60
913;DHT22;443;51.448;7.028;2023-03-29T05:47:54;12.60;71.70
913;DHT22;443;51.448;7.028;2023-03-29T05:50:21;12.70;72.30
913;DHT22;443;51.448;7.028;2023-03-29T05:52:48;12.70;72.10
913;DHT22;443;51.448;7.028;2023-03-29T05:55:16;12.70;72.00
913;DHT22;443;51.448;7.028;2023-03-29T05:57:44;12.70;72.50
913;DHT22;443;51.448;7.028;2023-03-29T06:00:12;12.70;72.10
913;DHT22;443;51.448;7.028;2023-03-29T06:02:48;12.70;72.30
913;DHT22;443;51.448;7.028;2023-03-29T06:05:16;12.70;72.10
913;DHT22;443;51.448;7.028;2023-03-29T06:07:44;12.70;72.00
913;DHT22;443;51.448;7.028;2023-03-29T06:10:13;12.70;72.50
913;DHT22;443;51.448;7.028;2023-03-29T06:12:40;12.70;72.20
913;DHT22;443;51.448;7.028;2023-03-29T06:15:09;12.80;72.30
913;DHT22;443;51.448;7.028;2023-03-29T06:17:37;12.80;72.40
913;DHT22;443;51.448;7.028;2023-03-29T06:20:05;12.80;72.20
913;DHT22;443;51.448;7.028;2023-03-29T06:22:35;12.80;72.50
913;DHT22;443;51.448;7.028;2023-03-29T06:25:02;12.80;72.40
913;DHT22;443;51.448;7.028;2023-03-29T06:27:29;12.80;72.20
913;DHT22;443;51.448;7.028;2023-03-29T06:29:55;12.90;72.30
913;DHT22;443;51.448;7.028;2023-03-29T06:32:24;12.90;72.00
913;DHT22;443;51.448;7.028;2023-03-29T06:34:51;12.90;72.20
913;DHT22;443;51.448;7.028;2023-03-29T06:37:17;12.80;71.70
913;DHT22;443;51.448;7.028;2023-03-29T06:39:44;12.90;71.70
913;DHT22;443;51.448;7.028;2023-03-29T06:42:11;12.90;71.70
913;DHT22;443;51.448;7.028;2023-03-29T06:44:38;12.90;71.70
913;DHT22;443;51.448;7.028;2023-03-29T06:47:05;12.90;71.50
913;DHT22;443;51.448;7.028;2023-03-29T06:49:34;12.90;71.50
913;DHT22;443;51.448;7.028;2023-03-29T06:52:00;12.90;71.30
913;DHT22;443;51.448;7.028;2023-03-29T06:54:27;12.90;71.70
913;DHT22;443;51.448;7.028;2023-03-29T06:56:54;12.90;71.10
913;DHT22;443;51.448;7.028;2023-03-29T06:59:21;13.00;71.40
913;DHT22;443;51.448;7.028;2023-03-29T07:01:48;13.00;71.30
913;DHT22;443;51.448;7.028;2023-03-29T07:04:16;13.00;70.60
913;DHT22;443;51.448;7.028;2023-03-29T07:06:45;13.00;70.50
913;DHT22;443;51.448;7.028;2023-03-29T07:09:15;13.00;70.30
913;DHT22;443;51.448;7.028;2023-03-29T07:11:43;13.00;70.30
913;DHT22;443;51.448;7.028;2023-03-29T07:14:11;13.00;70.40
913;DHT22;443;51.448;7.028;2023-03-29T07:16:37;13.00;70.00
913;DHT22;443;51.448;7.028;2023-03-29T07:19:04;13.00;70.10
913;DHT22;443;51.448;7.028;2023-03-29T07:21:33;12.90;69.20
913;DHT22;443;51.448;7.028;2023-03-29T07:24:01;13.00;69.70
913;DHT22;443;51.448;7.028;2023-03-29T07:26:29;13.10;69.60
913;DHT22;443;51.448;7.028;2023-03-29T07:28:56;13.10;69.60
913;DHT22;443;51.448;7.028;2023-03-29T07:31:24;13.10;69.80
913;DHT22;443;51.448;7.028;2023-03-29T07:33:53;13.40;72.50
913;DHT22;443;51.448;7.028;2023-03-29T07:36:20;13.60;71.30
913;DHT22;443;51.448;7.028;2023-03-29T07:38:47;13.60;71.50
913;DHT22;443;51.448;7.028;2023-03-29T07:41:15;13.70;71.10
913;DHT22;443;51.448;7.028;2023-03-29T07:43:42;13.60;68.30
913;DHT22;443;51.448;7.028;2023-03-29T07:46:09;13.40;68.60
913;DHT22;443;51.448;7.028;2023-03-29T07:48:36;13.30;68.60
913;DHT22;443;51.448;7.028;2023-03-29T07:51:03;13.30;68.50
913;DHT22;443;51.448;7.028;2023-03-29T07:53:30;13.30;68.00
913;DHT22;443;51.448;7.028;2023-03-29T07:55:57;13.30;68.50
913;DHT22;443;51.448;7.028;2023-03-29T07:58:26;13.20;68.10
913;DHT22;443;51.448;7.028;2023-03-29T08:00:54;13.20;67.90
913;DHT22;443;51.448;7.028;2023-03-29T08:03:20;13.30;68.60
913;DHT22;443;51.448;7.028;2023-03-29T08:05:47;13.30;68.70
913;DHT22;443;51.448;7.028;2023-03-29T08:08:14;13.30;68.70
913;DHT22;443;51.448;7.028;2023-03-29T08:10:41;13.30;69.00
913;DHT22;443;51.448;7.028;2023-03-29T08:13:09;13.30;68.90
913;DHT22;443;51.448;7.028;2023-03-29T08:15:38;13.30;69.10
913;DHT22;443;51.448;7.028;2023-03-29T08:18:06;13.30;68.80
913;DHT22;443;51.448;7.028;2023-03-29T08:20:33;13.30;69.90
913;DHT22;443;51.448;7.028;2023-03-29T08:23:00;13.40;69.30
913;DHT22;443;51.448;7.028;2023-03-29T08:25:27;13.40;68.40
913;DHT22;443;51.448;7.028;2023-03-29T08:27:54;13.30;68.40
913;DHT22;443;51.448;7.028;2023-03-29T08:30:21;13.30;68.90
913;DHT22;443;51.448;7.028;2023-03-29T08:32:49;13.40;68.80
913;DHT22;443;51.448;7.028;2023-03-29T08:35:17;13.40;69.10
913;DHT22;443;51.448;7.028;2023-03-29T08:37:45;13.40;70.40
913;DHT22;443;51.448;7.028;2023-03-29T08:40:15;13.40;69.40
913;DHT22;443;51.448;7.028;2023-03-29T08:45:49;13.40;69.60
913;DHT22;443;51.448;7.028;2023-03-29T08:48:26;13.40;69.10
913;DHT22;443;51.448;7.028;2023-03-29T08:50:57;13.50;69.60
913;DHT22;443;51.448;7.028;2023-03-29T08:53:28;13.40;69.80
913;DHT22;443;51.448;7.028;2023-03-29T08:55:57;13.40;68.90
913;DHT22;443;51.448;7.028;2023-03-29T08:58:27;13.40;69.00
913;DHT22;443;51.448;7.028;2023-03-29T09:00:57;13.40;69.10
913;DHT22;443;51.448;7.028;2023-03-29T09:03:30;13.50;69.50
913;DHT22;443;51.448;7.028;2023-03-29T09:06:02;13.50;69.10
913;DHT22;443;51.448;7.028;2023-03-29T09:08:29;13.50;69.30
913;DHT22;443;51.448;7.028;2023-03-29T09:11:09;13.50;69.30
913;DHT22;443;51.448;7.028;2023-03-29T09:13:44;13.60;69.20
913;DHT22;443;51.448;7.028;2023-03-29T09:16:18;13.60;68.90
913;DHT22;443;51.448;7.028;2023-03-29T09:18:58;13.60;69.50
913;DHT22;443;51.448;7.028;2023-03-29T09:21:31;13.60;70.30
913;DHT22;443;51.448;7.028;2023-03-29T09:24:12;13.60;69.70
913;DHT22;443;51.448;7.028;2023-03-29T09:26:46;13.70;69.00
913;DHT22;443;51.448;7.028;2023-03-29T09:29:37;13.70;69.30
913;DHT22;443;51.448;7.028;2023-03-29T09:32:13;13.70;69.00
913;DHT22;443;51.448;7.028;2023-03-29T09:34:48;13.70;68.50
913;DHT22;443;51.448;7.028;2023-03-29T09:37:21;13.80;69.10
913;DHT22;443;51.448;7.028;2023-03-29T09:39:49;13.80;69.10
913;DHT22;443;51.448;7.028;2023-03-29T09:42:18;13.90;69.60
913;DHT22;443;51.448;7.028;2023-03-29T09:44:48;13.80;69.40
913;DHT22;443;51.448;7.028;2023-03-29T09:47:19;13.90;70.00
913;DHT22;443;51.448;7.028;2023-03-29T09:49:53;13.90;69.20
913;DHT22;443;51.448;7.028;2023-03-29T09:52:21;13.90;69.60
913;DHT22;443;51.448;7.028;2023-03-29T09:54:48;13.90;70.00
913;DHT22;443;51.448;7.028;2023-03-29T09:57:16;13.90;70.00
913;DHT22;443;51.448;7.028;2023-03-29T09:59:45;14.00;70.30
913;DHT22;443;51.448;7.028;2023-03-29T10:02:13;14.00;68.60
913;DHT22;443;51.448;7.028;2023-03-29T10:04:41;14.00;68.90
913;DHT22;443;51.448;7.028;2023-03-29T10:07:15;14.00;68.90
913;DHT22;443;51.448;7.028;2023-03-29T10:09:44;14.00;69.00
913;DHT22;443;51.448;7.028;2023-03-29T10:12:11;14.10;68.50
913;DHT22;443;51.448;7.028;2023-03-29T10:14:42;14.10;68.30
913;DHT22;443;51.448;7.028;2023-03-29T10:17:12;14.20;68.90
913;DHT22;443;51.448;7.028;2023-03-29T10:19:47;14.10;67.90
913;DHT22;443;51.448;7.028;2023-03-29T10:22:18;14.20;68.90
913;DHT22;443;51.448;7.028;2023-03-29T10:24:48;14.20;68.20
913;DHT22;443;51.448;7.028;2023-03-29T10:27:19;14.20;68.10
913;DHT22;443;51.448;7.028;2023-03-29T10:29:48;14.20;67.90
913;DHT22;443;51.448;7.028;2023-03-29T10:32:17;14.20;67.80
913;DHT22;443;51.448;7.028;2023-03-29T10:34:49;14.30;68.60
913;DHT22;443;51.448;7.028;2023-03-29T10:37:19;14.30;68.80
913;DHT22;443;51.448;7.028;2023-03-29T10:39:48;14.40;68.50
913;DHT22;443;51.448;7.028;2023-03-29T10:42:18;14.40;67.50
913;DHT22;443;51.448;7.028;2023-03-29T10:44:52;14.50;68.50
913;DHT22;443;51.448;7.028;2023-03-29T10:47:20;14.40;68.00
913;DHT22;443;51.448;7.028;2023-03-29T10:49:50;14.50;68.80
913;DHT22;443;51.448;7.028;2023-03-29T10:52:20;14.50;67.60
913;DHT22;443;51.448;7.028;2023-03-29T10:54:49;14.50;67.50
913;DHT22;443;51.448;7.028;2023-03-29T10:57:22;14.50;68.40
913;DHT22;443;51.448;7.028;2023-03-29T10:59:58;14.50;68.20
913;DHT22;443;51.448;7.028;2023-03-29T11:02:43;14.40;68.20
913;DHT22;443;51.448;7.028;2023-03-29T11:05:23;14.50;68.50
913;DHT22;443;51.448;7.028;2023-03-29T11:08:16;14.50;68.60
913;DHT22;443;51.448;7.028;2023-03-29T11:10:52;14.50;68.00
913;DHT22;443;51.448;7.028;2023-03-29T11:13:27;14.50;68.00
913;DHT22;443;51.448;7.028;2023-03-29T11:16:06;14.60;68.20
913;DHT22;443;51.448;7.028;2023-03-29T11:18:50;14.60;67.70
913;DHT22;443;51.448;7.028;2023-03-29T11:21:25;14.60;68.00
913;DHT22;443;51.448;7.028;2023-03-29T11:24:02;14.60;67.40
913;DHT22;443;51.448;7.028;2023-03-29T11:26:42;14.60;68.00
913;DHT22;443;51.448;7.028;2023-03-29T11:29:16;14.70;67.80
913;DHT22;443;51.448;7.028;2023-03-29T11:31:54;14.70;68.20
913;DHT22;443;51.448;7.028;2023-03-29T11:34:28;14.70;68.20
913;DHT22;443;51.448;7.028;2023-03-29T11:37:02;14.70;67.70
913;DHT22;443;51.448;7.028;2023-03-29T11:39:40;14.70;67.70
913;DHT22;443;51.448;7.028;2023-03-29T11:42:14;14.70;67.90
913;DHT22;443;51.448;7.028;2023-03-29T11:44:43;14.80;68.10
913;DHT22;443;51.448;7.028;2023-03-29T11:47:15;14.90;67.20
913;DHT22;443;51.448;7.028;2023-03-29T11:49:46;14.90;67.50
913;DHT22;443;51.448;7.028;2023-03-29T11:52:17;14.90;68.00
913;DHT22;443;51.448;7.028;2023-03-29T11:54:49;14.90;67.10
913;DHT22;443;51.448;7.028;2023-03-29T11:57:22;14.90;67.70
913;DHT22;443;51.448;7.028;2023-03-29T11:59:55;15.00;67.40
913;DHT22;443;51.448;7.028;2023-03-29T12:02:28;15.00;67.30
913;DHT22;443;51.448;7.028;2023-03-29T12:05:01;15.10;67.70
913;DHT22;443;51.448;7.028;2023-03-29T12:07:32;15.10;66.90
913;DHT22;443;51.448;7.028;2023-03-29T12:10:06;15.10;67.10
913;DHT22;443;51.448;7.028;2023-03-29T12:12:45;15.10;67.80
913;DHT22;443;51.448;7.028;2023-03-29T12:15:17;15.10;67.50
913;DHT22;443;51.448;7.028;2023-03-29T12:17:48;15.10;67.40
913;DHT22;443;51.448;7.028;2023-03-29T12:20:20;15.00;67.70
913;DHT22;443;51.448;7.028;2023-03-29T12:22:49;15.00;67.60
913;DHT22;443;51.448;7.028;2023-03-29T12:25:20;14.90;68.00
913;DHT22;443;51.448;7.028;2023-03-29T12:28:02;14.90;68.20
913;DHT22;443;51.448;7.028;2023-03-29T12:30:45;14.90;68.00
913;DHT22;443;51.448;7.028;2023-03-29T12:33:31;15.00;68.00
913;DHT22;443;51.448;7.028;2023-03-29T12:36:11;15.00;67.50
913;DHT22;443;51.448;7.028;2023-03-29T12:38:40;15.10;67.50
913;DHT22;443;51.448;7.028;2023-03-29T12:41:14;15.10;67.30
913;DHT22;443;51.448;7.028;2023-03-29T12:43:41;15.20;67.20
913;DHT22;443;51.448;7.028;2023-03-29T12:46:13;15.20;67.20
913;DHT22;443;51.448;7.028;2023-03-29T12:48:42;15.10;67.40
913;DHT22;443;51.448;7.028;2023-03-29T12:51:12;15.10;67.30
913;DHT22;443;51.448;7.028;2023-03-29T12:53:42;15.10;67.60
913;DHT22;443;51.448;7.028;2023-03-29T12:56:14;15.10;67.50
913;DHT22;443;51.448;7.028;2023-03-29T12:59:14;15.10;67.60
913;DHT22;443;51.448;7.028;2023-03-29T13:01:55;15.10;67.50
913;DHT22;443;51.448;7.028;2023-03-29T13:04:34;15.10;67.60
913;DHT22;443;51.448;7.028;2023-03-29T13:07:03;15.10;67.70
913;DHT22;443;51.448;7.028;2023-03-29T13:09:33;15.10;67.50
913;DHT22;443;51.448;7.028;2023-03-29T13:12:20;15.20;67.50
913;DHT22;443;51.448;7.028;2023-03-29T13:14:50;15.30;67.40
913;DHT22;443;51.448;7.028;2023-03-29T13:17:24;15.30;67.50
913;DHT22;443;51.448;7.028;2023-03-29T13:20:06;15.30;67.40
913;DHT22;443;51.448;7.028;2023-03-29T13:22:44;15.30;67.40
913;DHT22;443;51.448;7.028;2023-03-29T13:25:35;15.30;67.30
913;DHT22;443;51.448;7.028;2023-03-29T13:28:11;15.30;67.30
913;DHT22;443;51.448;7.028;2023-03-29T13:30:47;15.40;67.30
913;DHT22;443;51.448;7.028;2023-03-29T13:33:43;15.40;67.20
913;DHT22;443;51.448;7.028;2023-03-29T13:36:26;15.40;67.90
913;DHT22;443;51.448;7.028;2023-03-29T13:39:00;15.30;67.40
913;DHT22;443;51.448;7.028;2023-03-29T13:41:41;15.30;67.40
913;DHT22;443;51.448;7.028;2023-03-29T13:44:25;15.40;67.60
913;DHT22;443;51.448;7.028;2023-03-29T13:47:03;15.40;67.50
913;DHT22;443;51.448;7.028;2023-03-29T13:49:32;15.30;67.60
913;DHT22;443;51.448;7.028;2023-03-29T13:52:04;15.30;67.70
913;DHT22;443;51.448;7.028;2023-03-29T13:54:36;15.30;67.80
913;DHT22;443;51.448;7.028;2023-03-29T13:57:10;15.30;67.90
913;DHT22;443;51.448;7.028;2023-03-29T13:59:45;15.40;67.50
913;DHT22;443;51.448;7.028;2023-03-29T14:02:20;15.50;67.40
913;DHT22;443;51.448;7.028;2023-03-29T14:04:51;15.60;67.30
913;DHT22;443;51.448;7.028;2023-03-29T14:07:20;15.60;67.20
913;DHT22;443;51.448;7.028;2023-03-29T14:09:51;15.50;67.30
913;DHT22;443;51.448;7.028;2023-03-29T14:12:19;15.50;67.40
913;DHT22;443;51.448;7.028;2023-03-29T14:14:47;15.50;67.30
913;DHT22;443;51.448;7.028;2023-03-29T14:17:17;15.50;67.40
913;DHT22;443;51.448;7.028;2023-03-29T14:19:46;15.40;67.30
913;DHT22;443;51.448;7.028;2023-03-29T14:22:14;15.40;67.40
913;DHT22;443;51.448;7.028;2023-03-29T14:24:46;15.50;67.50
913;DHT22;443;51.448;7.028;2023-03-29T14:27:14;15.40;67.40
913;DHT22;443;51.448;7.028;2023-03-29T14:29:44;15.40;67.50
913;DHT22;443;51.448;7.028;2023-03-29T14:32:15;15.50;67.50
913;DHT22;443;51.448;7.028;2023-03-29T14:34:42;15.40;67.30
913;DHT22;443;51.448;7.028;2023-03-29T14:37:10;15.40;67.70
913;DHT22;443;51.448;7.028;2023-03-29T14:39:38;15.40;67.40
913;DHT22;443;51.448;7.028;2023-03-29T14:42:13;15.40;67.50
913;DHT22;443;51.448;7.028;2023-03-29T14:44:42;15.40;67.50
913;DHT22;443;51.448;7.028;2023-03-29T14:47:16;15.40;67.60
913;DHT22;443;51.448;7.028;2023-03-29T14:49:45;15.40;67.70
913;DHT22;443;51.448;7.028;2023-03-29T14:52:13;15.50;67.80
913;DHT22;443;51.448;7.028;2023-03-29T14:54:45;15.50;67.50
913;DHT22;443;51.448;7.028;2023-03-29T14:57:14;15.40;67.40
913;DHT22;443;51.448;7.028;2023-03-29T14:59:48;15.50;67.60
913;DHT22;443;51.448;7.028;2023-03-29T15:02:24;15.60;67.70
913;DHT22;443;51.448;7.028;2023-03-29T15:04:59;15.50;67.40
913;DHT22;443;51.448;7.028;2023-03-29T15:07:30;15.40;67.40
913;DHT22;443;51.448;7.028;2023-03-29T15:09:58;15.40;67.50
913;DHT22;443;51.448;7.028;2023-03-29T15:12:28;15.40;67.40
913;DHT22;443;51.448;7.028;2023-03-29T15:14:55;15.50;67.60
913;DHT22;443;51.448;7.028;2023-03-29T15:17:29;15.50;67.60
913;DHT22;443;51.448;7.028;2023-03-29T15:19:59;15.40;67.40
913;DHT22;443;51.448;7.028;2023-03-29T15:22:32;15.40;67.50
913;DHT22;443;51.448;7.028;2023-03-29T15:24:59;15.40;67.40
913;DHT22;443;51.448;7.028;2023-03-29T15:27:26;15.50;67.50
913;DHT22;443;51.448;7.028;2023-03-29T15:29:59;15.40;67.60
913;DHT22;443;51.448;7.028;2023-03-29T15:32:33;15.40;67.60
913;DHT22;443;51.448;7.028;2023-03-29T15:35:02;15.50;67.70
913;DHT22;443;51.448;7.028;2023-03-29T15:37:30;15.50;67.50
913;DHT22;443;51.448;7.028;2023-03-29T15:39:57;15.30;67.70
913;DHT22;443;51.448;7.028;2023-03-29T15:42:24;15.30;67.90
913;DHT22;443;51.448;7.028;2023-03-29T15:44:53;15.30;68.00
913;DHT22;443;51.448;7.028;2023-03-29T15:47:21;15.30;67.90
913;DHT22;443;51.448;7.028;2023-03-29T15:49:49;15.40;68.00
913;DHT22;443;51.448;7.028;2023-03-29T15:52:16;15.40;67.70
913;DHT22;443;51.448;7.028;2023-03-29T15:54:43;15.40;67.70
913;DHT22;443;51.448;7.028;2023-03-29T15:57:13;15.40;67.60
913;DHT22;443;51.448;7.028;2023-03-29T15:59:41;15.40;67.70
913;DHT22;443;51.448;7.028;2023-03-29T16:02:11;15.50;67.70
913;DHT22;443;51.448;7.028;2023-03-29T16:04:40;15.50;67.70
913;DHT22;443;51.448;7.028;2023-03-29T16:07:09;15.50;67.60
913;DHT22;443;51.448;7.028;2023-03-29T16:09:38;15.50;67.70
913;DHT22;443;51.448;7.028;2023-03-29T16:12:05;15.50;67.60
913;DHT22;443;51.448;7.028;2023-03-29T16:14:32;15.50;67.90
913;DHT22;443;51.448;7.028;2023-03-29T16:16:59;15.50;67.80
913;DHT22;443;51.448;7.028;2023-03-29T16:19:28;15.40;67.90
913;DHT22;443;51.448;7.028;2023-03-29T16:21:55;15.50;67.80
913;DHT22;443;51.448;7.028;2023-03-29T16:24:26;15.50;68.00
913;DHT22;443;51.448;7.028;2023-03-29T16:26:53;15.50;67.90
913;DHT22;443;51.448;7.028;2023-03-29T16:29:20;15.40;67.70
913;DHT22;443;51.448;7.028;2023-03-29T16:31:48;15.40;68.00
913;DHT22;443;51.448;7.028;2023-03-29T16:34:15;15.40;67.80
913;DHT22;443;51.448;7.028;2023-03-29T16:36:43;15.40;67.90
913;DHT22;443;51.448;7.028;2023-03-29T16:39:10;15.40;68.20
913;DHT22;443;51.448;7.028;2023-03-29T16:41:39;15.40;67.90
913;DHT22;443;51.448;7.028;2023-03-29T16:44:07;15.40;68.00
913;DHT22;443;51.448;7.028;2023-03-29T16:46:38;15.40;68.00
913;DHT22;443;51.448;7.028;2023-03-29T16:49:05;15.40;68.50
913;DHT22;443;51.448;7.028;2023-03-29T16:51:33;15.40;67.80
913;DHT22;443;51.448;7.028;2023-03-29T16:53:59;15.50;68.00
913;DHT22;443;51.448;7.028;2023-03-29T16:56:26;15.40;67.90
913;DHT22;443;51.448;7.028;2023-03-29T16:58:55;15.40;68.10